sensor_id;sensor_type;location;lat;lon;timestamp;pressure;altitude;pressure_sealevel;temperature;humidity
36254;BME280;22291;52.250;21.228;2022-08-27T00:01:12;100015.69;;;20.79;59.60
36254;BME280;22291;52.250;21.228;2022-08-27T00:03:42;100015.45;;;20.75;59.62
36254;BME280;22291;52.250;21.228;2022-08-27T00:06:12;100009.33;;;20.68;59.65
36254;BME280;22291;52.250;21.228;2022-08-27T00:08:41;99998.33;;;20.64;60.02
36254;BME280;22291;52.250;21.228;2022-08-27T00:11:10;99996.91;;;20.61;59.94
36254;BME280;22291;52.250;21.228;2022-08-27T00:13:37;99996.91;;;20.61;59.94
36254;BME280;22291;52.250;21.228;2022-08-27T00:16:06;99994.52;;;20.56;60.30
36254;BME280;22291;52.250;21.228;2022-08-27T00:18:35;99995.07;;;20.51;60.44
36254;BME280;22291;52.250;21.228;2022-08-27T00:21:03;99994.27;;;20.47;60.56
36254;BME280;22291;52.250;21.228;2022-08-27T00:23:29;99990.52;;;20.42;60.81
36254;BME280;22291;52.250;21.228;2022-08-27T00:25:57;99982.64;;;20.37;60.77
36254;BME280;22291;52.250;21.228;2022-08-27T00:28:26;99981.62;;;20.32;61.11
36254;BME280;22291;52.250;21.228;2022-08-27T00:30:53;99979.85;;;20.30;61.33
36254;BME280;22291;52.250;21.228;2022-08-27T00:33:21;99980.21;;;20.25;61.55
36254;BME280;22291;52.250;21.228;2022-08-27T00:35:49;99976.85;;;20.22;61.62
36254;BME280;22291;52.250;21.228;2022-08-27T00:38:16;99976.83;;;20.18;61.66
36254;BME280;22291;52.250;21.228;2022-08-27T00:40:43;99970.51;;;20.14;61.70
36254;BME280;22291;52.250;21.228;2022-08-27T00:43:10;99969.11;;;20.10;61.93
36254;BME280;22291;52.250;21.228;2022-08-27T00:45:39;99972.05;;;20.08;62.19
36254;BME280;22291;52.250;21.228;2022-08-27T00:48:09;99971.66;;;20.06;62.46
36254;BME280;22291;52.250;21.228;2022-08-27T00:50:41;99970.45;;;20.03;62.54
36254;BME280;22291;52.250;21.228;2022-08-27T00:53:17;99978.87;;;20.01;62.83
36254;BME280;22291;52.250;21.228;2022-08-27T00:56:09;99980.41;;;19.98;62.86
36254;BME280;22291;52.250;21.228;2022-08-27T00:58:44;99979.41;;;19.96;63.12
36254;BME280;22291;52.250;21.228;2022-08-27T01:01:11;99976.48;;;19.95;62.94
36254;BME280;22291;52.250;21.228;2022-08-27T01:03:43;99979.01;;;19.94;63.01
36254;BME280;22291;52.250;21.228;2022-08-27T01:06:13;99980.38;;;19.94;63.27
36254;BME280;22291;52.250;21.228;2022-08-27T01:08:43;99977.61;;;19.91;63.15
36254;BME280;22291;52.250;21.228;2022-08-27T01:11:12;99976.23;;;19.91;63.17
36254;BME280;22291;52.250;21.228;2022-08-27T01:13:38;99977.77;;;19.88;63.20
36254;BME280;22291;52.250;21.228;2022-08-27T01:16:06;99974.03;;;19.87;63.26
36254;BME280;22291;52.250;21.228;2022-08-27T01:18:34;99974.00;;;19.83;63.32
36254;BME280;22291;52.250;21.228;2022-08-27T01:24:05;99964.75;;;19.78;63.34
36254;BME280;22291;52.250;21.228;2022-08-27T01:26:33;99964.72;;;19.74;63.50
36254;BME280;22291;52.250;21.228;2022-08-27T01:29:00;99969.00;;;19.72;63.70
36254;BME280;22291;52.250;21.228;2022-08-27T01:31:26;99973.49;;;19.70;63.74
36254;BME280;22291;52.250;21.228;2022-08-27T01:33:56;99971.13;;;19.69;63.95
36254;BME280;22291;52.250;21.228;2022-08-27T01:36:25;99968.53;;;19.66;64.02
36254;BME280;22291;52.250;21.228;2022-08-27T01:38:51;99968.73;;;19.64;64.15
36254;BME280;22291;52.250;21.228;2022-08-27T01:41:20;99959.66;;;19.59;64.24
36254;BME280;22291;52.250;21.228;2022-08-27T01:43:47;99960.84;;;19.58;64.64
36254;BME280;22291;52.250;21.228;2022-08-27T01:46:14;99956.89;;;19.56;64.49
36254;BME280;22291;52.250;21.228;2022-08-27T01:48:42;99956.86;;;19.52;64.57
36254;BME280;22291;52.250;21.228;2022-08-27T01:51:08;99959.79;;;19.50;65.07
36254;BME280;22291;52.250;21.228;2022-08-27T01:53:34;99967.39;;;19.47;64.79
36254;BME280;22291;52.250;21.228;2022-08-27T01:56:02;99966.39;;;19.45;64.99
36254;BME280;22291;52.250;21.228;2022-08-27T01:58:30;99963.63;;;19.41;64.88
36254;BME280;22291;52.250;21.228;2022-08-27T02:01:01;99963.78;;;19.39;64.97
36254;BME280;22291;52.250;21.228;2022-08-27T02:03:30;99956.89;;;19.35;65.23
36254;BME280;22291;52.250;21.228;2022-08-27T02:06:01;99965.30;;;19.33;65.27
36254;BME280;22291;52.250;21.228;2022-08-27T02:08:29;99965.05;;;19.28;65.59
36254;BME280;22291;52.250;21.228;2022-08-27T02:10:56;99959.09;;;19.19;65.53
36254;BME280;22291;52.250;21.228;2022-08-27T02:13:22;99967.22;;;19.12;65.52
36254;BME280;22291;52.250;21.228;2022-08-27T02:15:48;99959.70;;;19.05;65.51
36254;BME280;22291;52.250;21.228;2022-08-27T02:18:15;99960.47;;;19.02;65.91
36254;BME280;22291;52.250;21.228;2022-08-27T02:20:46;99966.33;;;19.00;65.92
36254;BME280;22291;52.250;21.228;2022-08-27T02:23:14;99961.17;;;18.95;66.06
36254;BME280;22291;52.250;21.228;2022-08-27T02:25:41;99952.70;;;18.91;66.21
36254;BME280;22291;52.250;21.228;2022-08-27T02:28:08;99958.33;;;18.88;66.24
36254;BME280;22291;52.250;21.228;2022-08-27T02:30:35;99951.06;;;18.86;66.24
36254;BME280;22291;52.250;21.228;2022-08-27T02:33:03;99955.77;;;18.85;66.28
36254;BME280;22291;52.250;21.228;2022-08-27T02:35:32;99956.36;;;18.85;66.50
36254;BME280;22291;52.250;21.228;2022-08-27T02:38:00;99957.66;;;18.81;66.77
36254;BME280;22291;52.250;21.228;2022-08-27T02:40:27;99960.33;;;18.78;66.94
36254;BME280;22291;52.250;21.228;2022-08-27T02:42:54;99956.77;;;18.74;67.00
36254;BME280;22291;52.250;21.228;2022-08-27T02:45:20;99958.51;;;18.72;67.01
36254;BME280;22291;52.250;21.228;2022-08-27T02:47:47;99970.24;;;18.73;67.28
36254;BME280;22291;52.250;21.228;2022-08-27T02:50:14;99972.98;;;18.73;67.29
36254;BME280;22291;52.250;21.228;2022-08-27T02:52:41;99968.27;;;18.70;67.24
36254;BME280;22291;52.250;21.228;2022-08-27T02:55:10;99969.64;;;18.70;67.34
36254;BME280;22291;52.250;21.228;2022-08-27T02:57:37;99968.64;;;18.68;67.54
36254;BME280;22291;52.250;21.228;2022-08-27T03:00:07;99967.64;;;18.66;67.66
36254;BME280;22291;52.250;21.228;2022-08-27T03:02:35;99964.86;;;18.63;67.46
36254;BME280;22291;52.250;21.228;2022-08-27T03:05:03;99967.75;;;18.60;67.62
36254;BME280;22291;52.250;21.228;2022-08-27T03:07:30;99968.70;;;18.58;67.71
36254;BME280;22291;52.250;21.228;2022-08-27T03:09:56;99962.55;;;18.52;67.80
36254;BME280;22291;52.250;21.228;2022-08-27T03:12:22;99966.24;;;18.50;67.88
36254;BME280;22291;52.250;21.228;2022-08-27T03:14:49;99967.76;;;18.47;67.86
36254;BME280;22291;52.250;21.228;2022-08-27T03:17:15;99968.52;;;18.44;68.09
36254;BME280;22291;52.250;21.228;2022-08-27T03:20:00;99966.71;;;18.42;68.06
36254;BME280;22291;52.250;21.228;2022-08-27T03:22:26;99963.34;;;18.39;68.39
36254;BME280;22291;52.250;21.228;2022-08-27T03:24:52;99968.03;;;18.38;68.38
36254;BME280;22291;52.250;21.228;2022-08-27T03:27:20;99969.21;;;18.37;68.31
36254;BME280;22291;52.250;21.228;2022-08-27T03:29:46;99971.50;;;18.35;68.15
36254;BME280;22291;52.250;21.228;2022-08-27T03:32:13;99965.61;;;18.33;68.33
36254;BME280;22291;52.250;21.228;2022-08-27T03:34:39;99965.94;;;18.28;68.29
36254;BME280;22291;52.250;21.228;2022-08-27T03:37:05;99963.14;;;18.24;68.19
36254;BME280;22291;52.250;21.228;2022-08-27T03:39:31;99962.31;;;18.20;68.14
36254;BME280;22291;52.250;21.228;2022-08-27T03:41:57;99960.50;;;18.18;68.24
36254;BME280;22291;52.250;21.228;2022-08-27T03:44:23;99962.83;;;18.16;68.42
36254;BME280;22291;52.250;21.228;2022-08-27T03:46:50;99959.45;;;18.13;68.37
36254;BME280;22291;52.250;21.228;2022-08-27T03:49:19;99954.56;;;18.13;68.54
36254;BME280;22291;52.250;21.228;2022-08-27T03:51:46;99954.73;;;18.10;68.67
36254;BME280;22291;52.250;21.228;2022-08-27T03:54:12;99947.25;;;18.07;68.71
36254;BME280;22291;52.250;21.228;2022-08-27T03:56:38;99956.02;;;18.06;68.87
36254;BME280;22291;52.250;21.228;2022-08-27T03:59:06;99953.45;;;18.04;68.84
36254;BME280;22291;52.250;21.228;2022-08-27T04:01:33;99953.82;;;18.02;69.05
36254;BME280;22291;52.250;21.228;2022-08-27T04:03:59;99948.35;;;18.02;69.45
36254;BME280;22291;52.250;21.228;2022-08-27T04:06:25;99950.86;;;18.01;69.50
36254;BME280;22291;52.250;21.228;2022-08-27T04:08:53;99950.30;;;18.02;69.65
36254;BME280;22291;52.250;21.228;2022-08-27T04:11:19;99948.94;;;18.02;69.55
36254;BME280;22291;52.250;21.228;2022-08-27T04:13:46;99955.41;;;18.03;69.55
36254;BME280;22291;52.250;21.228;2022-08-27T04:16:12;99957.92;;;18.02;69.54
36254;BME280;22291;52.250;21.228;2022-08-27T04:18:38;99953.05;;;18.02;69.59
36254;BME280;22291;52.250;21.228;2022-08-27T04:21:09;99954.19;;;18.01;69.75
36254;BME280;22291;52.250;21.228;2022-08-27T04:23:38;99953.82;;;18.02;69.76
36254;BME280;22291;52.250;21.228;2022-08-27T04:26:08;99953.05;;;18.02;69.79
36254;BME280;22291;52.250;21.228;2022-08-27T04:28:35;99951.09;;;18.02;69.84
36254;BME280;22291;52.250;21.228;2022-08-27T04:31:02;99946.20;;;18.02;70.07
36254;BME280;22291;52.250;21.228;2022-08-27T04:33:29;99949.50;;;18.01;70.07
36254;BME280;22291;52.250;21.228;2022-08-27T04:35:59;99949.58;;;18.05;70.15
36254;BME280;22291;52.250;21.228;2022-08-27T04:38:27;99949.77;;;18.06;70.31
36254;BME280;22291;52.250;21.228;2022-08-27T04:40:53;99948.45;;;18.09;70.52
36254;BME280;22291;52.250;21.228;2022-08-27T04:43:39;99954.42;;;18.15;70.74
36254;BME280;22291;52.250;21.228;2022-08-27T04:46:07;99955.25;;;18.19;70.87
36254;BME280;22291;52.250;21.228;2022-08-27T04:48:34;99963.37;;;18.25;70.91
36254;BME280;22291;52.250;21.228;2022-08-27T04:51:00;99962.05;;;18.29;71.04
36254;BME280;22291;52.250;21.228;2022-08-27T04:53:27;99957.03;;;18.35;70.98
36254;BME280;22291;52.250;21.228;2022-08-27T04:55:54;99957.86;;;18.39;71.06
36254;BME280;22291;52.250;21.228;2022-08-27T04:58:23;99955.61;;;18.44;71.08
36254;BME280;22291;52.250;21.228;2022-08-27T05:00:53;99962.91;;;18.50;71.07
36254;BME280;22291;52.250;21.228;2022-08-27T05:03:22;99970.62;;;18.54;71.10
36254;BME280;22291;52.250;21.228;2022-08-27T05:05:51;99959.75;;;18.61;71.06
36254;BME280;22291;52.250;21.228;2022-08-27T05:08:19;99969.79;;;18.67;71.21
36254;BME280;22291;52.250;21.228;2022-08-27T05:10:47;99971.84;;;18.74;71.12
36254;BME280;22291;52.250;21.228;2022-08-27T05:13:17;99970.55;;;18.81;71.26
36254;BME280;22291;52.250;21.228;2022-08-27T05:15:45;99964.62;;;18.89;71.36
36254;BME280;22291;52.250;21.228;2022-08-27T05:18:12;99962.73;;;18.96;71.49
36254;BME280;22291;52.250;21.228;2022-08-27T05:20:44;99965.03;;;19.08;71.52
36254;BME280;22291;52.250;21.228;2022-08-27T05:23:14;99963.36;;;19.16;71.46
36254;BME280;22291;52.250;21.228;2022-08-27T05:25:43;99964.61;;;19.22;71.23
36254;BME280;22291;52.250;21.228;2022-08-27T05:28:12;99962.75;;;19.34;71.29
36254;BME280;22291;52.250;21.228;2022-08-27T05:30:44;99960.29;;;19.42;71.24
36254;BME280;22291;52.250;21.228;2022-08-27T05:33:13;99958.23;;;19.52;71.11
36254;BME280;22291;52.250;21.228;2022-08-27T05:35:46;99960.50;;;19.64;71.09
36254;BME280;22291;52.250;21.228;2022-08-27T05:38:11;99957.48;;;19.76;71.07
36254;BME280;22291;52.250;21.228;2022-08-27T05:40:38;99957.00;;;19.87;70.90
36254;BME280;22291;52.250;21.228;2022-08-27T05:43:06;99961.59;;;20.00;70.74
36254;BME280;22291;52.250;21.228;2022-08-27T05:45:38;99962.87;;;20.13;70.74
36254;BME280;22291;52.250;21.228;2022-08-27T05:48:09;99968.04;;;20.26;70.49
36254;BME280;22291;52.250;21.228;2022-08-27T05:50:39;99963.22;;;20.40;70.38
36254;BME280;22291;52.250;21.228;2022-08-27T05:53:06;99962.53;;;20.53;70.38
36254;BME280;22291;52.250;21.228;2022-08-27T05:55:40;99959.27;;;20.68;70.28
36254;BME280;22291;52.250;21.228;2022-08-27T05:58:11;99960.34;;;20.84;70.19
36254;BME280;22291;52.250;21.228;2022-08-27T06:00:39;99954.70;;;21.01;69.93
36254;BME280;22291;52.250;21.228;2022-08-27T06:03:24;99961.44;;;21.18;69.70
36254;BME280;22291;52.250;21.228;2022-08-27T06:06:02;99971.67;;;21.36;68.81
36254;BME280;22291;52.250;21.228;2022-08-27T06:08:31;99967.98;;;21.49;68.72
36254;BME280;22291;52.250;21.228;2022-08-27T06:11:01;99969.77;;;21.65;68.46
36254;BME280;22291;52.250;21.228;2022-08-27T06:13:30;99969.20;;;21.83;68.41
36254;BME280;22291;52.250;21.228;2022-08-27T06:16:06;99968.98;;;22.04;68.43
36254;BME280;22291;52.250;21.228;2022-08-27T06:18:36;99971.91;;;22.23;67.75
36254;BME280;22291;52.250;21.228;2022-08-27T06:21:04;99969.14;;;22.45;67.62
36254;BME280;22291;52.250;21.228;2022-08-27T06:23:32;99967.89;;;22.67;67.42
36254;BME280;22291;52.250;21.228;2022-08-27T06:25:59;99970.36;;;22.88;66.81
36254;BME280;22291;52.250;21.228;2022-08-27T06:28:27;99961.63;;;23.11;66.44
36254;BME280;22291;52.250;21.228;2022-08-27T06:31:12;99961.08;;;23.34;66.07
36254;BME280;22291;52.250;21.228;2022-08-27T06:33:42;99952.22;;;23.61;65.71
36254;BME280;22291;52.250;21.228;2022-08-27T06:36:11;99958.15;;;23.89;65.30
36254;BME280;22291;52.250;21.228;2022-08-27T06:38:39;99955.73;;;24.14;64.72
36254;BME280;22291;52.250;21.228;2022-08-27T06:41:11;99959.58;;;24.42;63.74
36254;BME280;22291;52.250;21.228;2022-08-27T06:43:41;99959.50;;;24.69;63.13
36254;BME280;22291;52.250;21.228;2022-08-27T06:46:11;99955.04;;;24.94;62.61
36254;BME280;22291;52.250;21.228;2022-08-27T06:48:40;99961.77;;;25.24;62.06
36254;BME280;22291;52.250;21.228;2022-08-27T06:51:10;99963.94;;;25.51;61.15
36254;BME280;22291;52.250;21.228;2022-08-27T06:53:41;99965.70;;;25.77;60.13
36254;BME280;22291;52.250;21.228;2022-08-27T06:56:09;99972.24;;;26.02;59.30
36254;BME280;22291;52.250;21.228;2022-08-27T06:58:37;99971.19;;;26.28;59.00
36254;BME280;22291;52.250;21.228;2022-08-27T07:01:12;99962.63;;;26.62;58.53
36254;BME280;22291;52.250;21.228;2022-08-27T07:03:41;99964.03;;;26.91;57.35
36254;BME280;22291;52.250;21.228;2022-08-27T07:06:09;99959.25;;;27.19;56.59
36254;BME280;22291;52.250;21.228;2022-08-27T07:08:37;99960.59;;;27.48;55.52
36254;BME280;22291;52.250;21.228;2022-08-27T07:11:06;99962.52;;;27.75;55.10
36254;BME280;22291;52.250;21.228;2022-08-27T07:13:33;99964.51;;;28.08;54.47
36254;BME280;22291;52.250;21.228;2022-08-27T07:16:05;99965.63;;;28.40;53.80
36254;BME280;22291;52.250;21.228;2022-08-27T07:18:38;99966.52;;;28.66;52.44
36254;BME280;22291;52.250;21.228;2022-08-27T07:21:05;99955.59;;;28.93;52.40
36254;BME280;22291;52.250;21.228;2022-08-27T07:23:33;99961.27;;;29.23;51.14
36254;BME280;22291;52.250;21.228;2022-08-27T07:26:09;99954.14;;;29.48;50.55
36254;BME280;22291;52.250;21.228;2022-08-27T07:28:38;99954.24;;;29.74;50.21
36254;BME280;22291;52.250;21.228;2022-08-27T07:31:07;99953.03;;;30.06;49.39
36254;BME280;22291;52.250;21.228;2022-08-27T07:33:36;99958.32;;;30.30;49.01
36254;BME280;22291;52.250;21.228;2022-08-27T07:36:04;99953.89;;;30.55;47.98
36254;BME280;22291;52.250;21.228;2022-08-27T07:38:32;99952.75;;;30.70;47.17
36254;BME280;22291;52.250;21.228;2022-08-27T07:41:08;99956.94;;;30.97;46.80
36254;BME280;22291;52.250;21.228;2022-08-27T07:43:36;99955.33;;;31.22;46.23
36254;BME280;22291;52.250;21.228;2022-08-27T07:46:22;99960.55;;;31.47;45.47
36254;BME280;22291;52.250;21.228;2022-08-27T07:48:50;99957.81;;;31.70;44.67
36254;BME280;22291;52.250;21.228;2022-08-27T07:51:19;99955.23;;;31.94;43.95
36254;BME280;22291;52.250;21.228;2022-08-27T07:53:47;99969.55;;;32.29;43.63
36254;BME280;22291;52.250;21.228;2022-08-27T07:56:14;99962.98;;;32.73;42.87
36254;BME280;22291;52.250;21.228;2022-08-27T07:58:41;99953.71;;;33.01;42.53
36254;BME280;22291;52.250;21.228;2022-08-27T08:01:09;99953.71;;;33.01;42.53
36254;BME280;22291;52.250;21.228;2022-08-27T08:03:36;99955.19;;;33.25;41.72
36254;BME280;22291;52.250;21.228;2022-08-27T08:06:08;99956.14;;;33.50;41.35
36254;BME280;22291;52.250;21.228;2022-08-27T08:08:38;99953.41;;;33.70;40.62
36254;BME280;22291;52.250;21.228;2022-08-27T08:11:09;99951.09;;;33.88;40.00
36254;BME280;22291;52.250;21.228;2022-08-27T08:13:37;99956.81;;;34.13;39.58
36254;BME280;22291;52.250;21.228;2022-08-27T08:16:05;99951.23;;;34.33;39.14
36254;BME280;22291;52.250;21.228;2022-08-27T08:18:32;99952.11;;;34.54;38.65
36254;BME280;22291;52.250;21.228;2022-08-27T08:21:04;99945.69;;;34.73;38.00
36254;BME280;22291;52.250;21.228;2022-08-27T08:23:32;99944.03;;;34.96;37.51
36254;BME280;22291;52.250;21.228;2022-08-27T08:26:00;99948.02;;;35.14;37.31
36254;BME280;22291;52.250;21.228;2022-08-27T08:28:27;99943.84;;;35.25;37.15
36254;BME280;22291;52.250;21.228;2022-08-27T08:30:58;99948.30;;;35.42;36.83
36254;BME280;22291;52.250;21.228;2022-08-27T08:33:25;99945.41;;;35.57;36.30
36254;BME280;22291;52.250;21.228;2022-08-27T08:36:00;99949.75;;;35.73;36.40
36254;BME280;22291;52.250;21.228;2022-08-27T08:38:23;99948.33;;;36.03;36.49
36254;BME280;22291;52.250;21.228;2022-08-27T08:40:51;99947.17;;;36.26;35.13
36254;BME280;22291;52.250;21.228;2022-08-27T08:43:37;99946.20;;;36.45;35.05
36254;BME280;22291;52.250;21.228;2022-08-27T08:46:19;99949.09;;;36.67;34.94
36254;BME280;22291;52.250;21.228;2022-08-27T08:49:27;99946.48;;;36.73;33.91
36254;BME280;22291;52.250;21.228;2022-08-27T08:52:06;99947.75;;;36.72;33.90
36254;BME280;22291;52.250;21.228;2022-08-27T08:54:36;99950.62;;;36.94;33.57
36254;BME280;22291;52.250;21.228;2022-08-27T08:57:19;99952.55;;;37.14;33.62
36254;BME280;22291;52.250;21.228;2022-08-27T09:00:00;99952.28;;;37.28;33.19
36254;BME280;22291;52.250;21.228;2022-08-27T09:02:23;99946.42;;;37.37;32.91
36254;BME280;22291;52.250;21.228;2022-08-27T09:04:50;99940.47;;;37.51;32.22
36254;BME280;22291;52.250;21.228;2022-08-27T09:07:41;99931.34;;;37.67;32.21
36254;BME280;22291;52.250;21.228;2022-08-27T09:10:25;99944.62;;;37.88;31.77
36254;BME280;22291;52.250;21.228;2022-08-27T09:13:12;99935.94;;;37.98;31.05
36254;BME280;22291;52.250;21.228;2022-08-27T09:15:37;99935.15;;;37.97;31.29
36254;BME280;22291;52.250;21.228;2022-08-27T09:18:12;99931.52;;;38.13;31.25
36254;BME280;22291;52.250;21.228;2022-08-27T09:20:39;99932.56;;;38.32;30.65
36254;BME280;22291;52.250;21.228;2022-08-27T09:25:53;99926.81;;;38.82;30.05
36254;BME280;22291;52.250;21.228;2022-08-27T09:28:25;99934.91;;;39.07;29.22
36254;BME280;22291;52.250;21.228;2022-08-27T09:31:15;99927.20;;;39.13;28.47
36254;BME280;22291;52.250;21.228;2022-08-27T09:33:42;99931.02;;;39.27;28.03
36254;BME280;22291;52.250;21.228;2022-08-27T09:36:12;99926.53;;;39.25;27.60
36254;BME280;22291;52.250;21.228;2022-08-27T09:38:55;99927.91;;;39.31;27.15
36254;BME280;22291;52.250;21.228;2022-08-27T09:41:26;99924.37;;;39.48;26.87
36254;BME280;22291;52.250;21.228;2022-08-27T09:43:59;99932.45;;;39.62;26.69
36254;BME280;22291;52.250;21.228;2022-08-27T09:46:35;99916.47;;;39.70;25.45
36254;BME280;22291;52.250;21.228;2022-08-27T09:49:13;99917.40;;;39.66;25.20
36254;BME280;22291;52.250;21.228;2022-08-27T09:51:43;99926.75;;;39.73;25.42
36254;BME280;22291;52.250;21.228;2022-08-27T09:54:41;99925.19;;;39.78;25.56
36254;BME280;22291;52.250;21.228;2022-08-27T09:57:12;99921.57;;;39.77;25.51
36254;BME280;22291;52.250;21.228;2022-08-27T09:59:48;99920.91;;;39.84;24.99
36254;BME280;22291;52.250;21.228;2022-08-27T10:10:28;99912.95;;;39.47;23.25
36254;BME280;22291;52.250;21.228;2022-08-27T10:13:16;99921.47;;;39.36;23.83
36254;BME280;22291;52.250;21.228;2022-08-27T10:19:29;99906.56;;;39.30;23.54
36254;BME280;22291;52.250;21.228;2022-08-27T10:33:29;99907.53;;;39.55;21.90
36254;BME280;22291;52.250;21.228;2022-08-27T10:39:20;99907.96;;;40.00;22.05
36254;BME280;22291;52.250;21.228;2022-08-27T10:42:25;99903.77;;;40.30;21.37
36254;BME280;22291;52.250;21.228;2022-08-27T10:45:17;99899.27;;;40.64;21.29
36254;BME280;22291;52.250;21.228;2022-08-27T10:48:05;99904.45;;;40.90;20.94
36254;BME280;22291;52.250;21.228;2022-08-27T10:53:21;99914.30;;;41.26;20.77
36254;BME280;22291;52.250;21.228;2022-08-27T10:56:12;99899.14;;;41.18;20.59
36254;BME280;22291;52.250;21.228;2022-08-27T10:59:10;99903.41;;;41.30;20.40
36254;BME280;22291;52.250;21.228;2022-08-27T11:04:28;99896.25;;;41.86;20.15
36254;BME280;22291;52.250;21.228;2022-08-27T11:06:59;99898.15;;;41.97;19.98
36254;BME280;22291;52.250;21.228;2022-08-27T11:12:30;99889.08;;;41.73;19.57
36254;BME280;22291;52.250;21.228;2022-08-27T11:15:07;99889.25;;;41.80;19.32
36254;BME280;22291;52.250;21.228;2022-08-27T11:17:41;99890.83;;;41.57;19.41
36254;BME280;22291;52.250;21.228;2022-08-27T11:20:33;99883.62;;;41.75;19.60
36254;BME280;22291;52.250;21.228;2022-08-27T11:23:12;99889.50;;;41.89;19.13
36254;BME280;22291;52.250;21.228;2022-08-27T11:25:58;99882.80;;;42.25;18.75
36254;BME280;22291;52.250;21.228;2022-08-27T11:28:38;99893.48;;;41.99;18.98
36254;BME280;22291;52.250;21.228;2022-08-27T11:34:16;99876.84;;;42.16;18.39
36254;BME280;22291;52.250;21.228;2022-08-27T11:40:24;99880.23;;;41.95;17.84
36254;BME280;22291;52.250;21.228;2022-08-27T11:43:08;99875.88;;;41.94;17.92
36254;BME280;22291;52.250;21.228;2022-08-27T11:45:37;99872.83;;;42.18;17.91
36254;BME280;22291;52.250;21.228;2022-08-27T11:48:21;99879.21;;;42.38;17.90
36254;BME280;22291;52.250;21.228;2022-08-27T11:51:05;99871.42;;;42.57;17.79
36254;BME280;22291;52.250;21.228;2022-08-27T11:53:37;99876.91;;;42.82;17.71
36254;BME280;22291;52.250;21.228;2022-08-27T11:58:42;99877.03;;;43.09;16.33
36254;BME280;22291;52.250;21.228;2022-08-27T12:01:30;99872.77;;;43.09;16.20
36254;BME280;22291;52.250;21.228;2022-08-27T12:04:06;99873.75;;;43.32;16.45
36254;BME280;22291;52.250;21.228;2022-08-27T12:06:42;99871.72;;;43.67;16.30
36254;BME280;22291;52.250;21.228;2022-08-27T12:09:16;99871.45;;;43.92;16.35
36254;BME280;22291;52.250;21.228;2022-08-27T12:12:04;99877.30;;;44.07;16.34
36254;BME280;22291;52.250;21.228;2022-08-27T12:14:51;99868.20;;;44.15;15.98
36254;BME280;22291;52.250;21.228;2022-08-27T12:17:46;99859.55;;;44.29;15.86
36254;BME280;22291;52.250;21.228;2022-08-27T12:23:09;99860.83;;;44.70;15.91
36254;BME280;22291;52.250;21.228;2022-08-27T12:28:47;99858.61;;;44.76;15.64
36254;BME280;22291;52.250;21.228;2022-08-27T12:31:21;99850.25;;;44.92;15.71
36254;BME280;22291;52.250;21.228;2022-08-27T12:33:50;99856.06;;;45.08;15.56
36254;BME280;22291;52.250;21.228;2022-08-27T12:36:25;99856.50;;;45.20;15.44
36254;BME280;22291;52.250;21.228;2022-08-27T12:38:56;99856.58;;;44.99;14.70
36254;BME280;22291;52.250;21.228;2022-08-27T12:41:29;99855.81;;;44.55;14.84
36254;BME280;22291;52.250;21.228;2022-08-27T12:44:09;99850.95;;;44.21;15.15
36254;BME280;22291;52.250;21.228;2022-08-27T12:46:49;99856.73;;;44.22;15.30
36254;BME280;22291;52.250;21.228;2022-08-27T12:49:30;99849.94;;;44.25;15.29
36254;BME280;22291;52.250;21.228;2022-08-27T12:52:17;99847.04;;;44.11;15.38
36254;BME280;22291;52.250;21.228;2022-08-27T13:00:10;99842.77;;;44.11;15.00
36254;BME280;22291;52.250;21.228;2022-08-27T13:05:19;99846.40;;;43.83;15.39
36254;BME280;22291;52.250;21.228;2022-08-27T13:07:49;99841.34;;;43.83;15.22
36254;BME280;22291;52.250;21.228;2022-08-27T13:10:28;99842.55;;;43.74;14.69
36254;BME280;22291;52.250;21.228;2022-08-27T13:13:08;99843.95;;;43.53;14.53
36254;BME280;22291;52.250;21.228;2022-08-27T13:15:42;99836.78;;;43.19;14.38
36254;BME280;22291;52.250;21.228;2022-08-27T13:18:10;99841.60;;;43.10;14.82
36254;BME280;22291;52.250;21.228;2022-08-27T13:20:38;99842.98;;;42.70;14.66
36254;BME280;22291;52.250;21.228;2022-08-27T13:23:11;99839.88;;;42.48;14.87
36254;BME280;22291;52.250;21.228;2022-08-27T13:28:34;99845.52;;;42.22;15.37
36254;BME280;22291;52.250;21.228;2022-08-27T13:31:08;99840.31;;;42.07;15.55
36254;BME280;22291;52.250;21.228;2022-08-27T13:33:36;99844.73;;;41.95;15.75
36254;BME280;22291;52.250;21.228;2022-08-27T13:36:05;99845.34;;;41.81;15.86
36254;BME280;22291;52.250;21.228;2022-08-27T13:38:38;99835.81;;;41.72;15.76
36254;BME280;22291;52.250;21.228;2022-08-27T13:41:08;99845.55;;;41.65;15.98
36254;BME280;22291;52.250;21.228;2022-08-27T13:43:48;99846.75;;;41.62;15.95
36254;BME280;22291;52.250;21.228;2022-08-27T13:46:17;99842.05;;;41.58;15.65
36254;BME280;22291;52.250;21.228;2022-08-27T13:48:48;99837.75;;;41.52;15.94
36254;BME280;22291;52.250;21.228;2022-08-27T13:51:33;99841.39;;;41.40;16.14
36254;BME280;22291;52.250;21.228;2022-08-27T13:54:05;99841.41;;;41.15;15.88
36254;BME280;22291;52.250;21.228;2022-08-27T13:56:38;99838.27;;;40.57;15.78
36254;BME280;22291;52.250;21.228;2022-08-27T13:59:13;99838.08;;;40.19;16.63
36254;BME280;22291;52.250;21.228;2022-08-27T14:01:39;99835.75;;;40.05;17.13
36254;BME280;22291;52.250;21.228;2022-08-27T14:04:19;99837.19;;;40.00;17.47
36254;BME280;22291;52.250;21.228;2022-08-27T14:06:45;99834.24;;;39.93;17.34
36254;BME280;22291;52.250;21.228;2022-08-27T14:09:24;99838.43;;;39.86;17.44
36254;BME280;22291;52.250;21.228;2022-08-27T14:12:00;99830.72;;;39.63;17.25
36254;BME280;22291;52.250;21.228;2022-08-27T14:14:35;99829.69;;;39.31;17.51
36254;BME280;22291;52.250;21.228;2022-08-27T14:17:05;99831.83;;;39.14;18.20
36254;BME280;22291;52.250;21.228;2022-08-27T14:19:35;99835.44;;;39.03;18.40